Skip to main content.
 TIME   TEMPERATURE   WINDSPEED   DIRECTION   HUMIDITY   BAROMETER   RAINFALL 
7:50 10.0°C (50.0°F) 11.1 kmh (6.9 mph) NW 87% 1026.1hPa (30.30 inHg) 0.0mm (0.00 in.)
6:50 10.0°C (50.0 °F) 13.0 kmh (8.1 mph) WNW 93% 1025.1hPa (30.27 inHg) 0.0mm (0.00 in.)
5:50 10.0°C (50.0 °F) 13.0 kmh (8.1 mph) WNW 87% 1025.1hPa (30.27 inHg) 0.0mm (0.00 in.)
4:50 10.0°C (50.0 °F) 13.0 kmh (8.1 mph) NW 87% 1024.0hPa (30.24 inHg) 0.0mm (0.00 in.)
3:50 10.0°C (50.0 °F) 11.1 kmh (6.9 mph) W 87% 1025.1hPa (30.27 inHg) 0.0mm (0.00 in.)
2:50 10.0°C (50.0 °F) 13.0 kmh (8.1 mph) NW 93% 1025.1hPa (30.27 inHg) 0.0mm (0.00 in.)
1:50 11.0°C (51.8 °F) 11.1 kmh (6.9 mph) WNW 87% 1025.1hPa (30.27 inHg) 0.0mm (0.00 in.)
0:50 11.0°C (51.8 °F) 14.8 kmh (9.2 mph) WNW 87% 1025.1hPa (30.27 inHg) 0.0mm (0.00 in.)
23:50 11.0°C (51.8 °F) 11.1 kmh (6.9 mph) WSW 93% 1025.1hPa (30.27 inHg) 0.0mm (0.00 in.)
22:50 11.0°C (51.8 °F) 7.4 kmh (4.6 mph) W 81% 1026.1hPa (30.30 inHg) 0.0mm (0.00 in.)
21:50 11.0°C (51.8 °F) 5.6 kmh (3.5 mph) WSW 81% 1025.1hPa (30.27 inHg) 0.0mm (0.00 in.)
20:50 11.0°C (51.8 °F) 11.1 kmh (6.9 mph) WNW 81% 1025.1hPa (30.27 inHg) 0.0mm (0.00 in.)
19:50 11.0°C (51.8 °F) 14.8 kmh (9.2 mph) WNW 81% 1025.1hPa (30.27 inHg) 0.0mm (0.00 in.)
18:50 12.0°C (53.6 °F) 11.1 kmh (6.9 mph) WNW 76% 1024.0hPa (30.24 inHg) 0.0mm (0.00 in.)
17:50 15.0°C (59.0 °F) 14.8 kmh (9.2 mph) NW 62% 1024.0hPa (30.24 inHg) 0.0mm (0.00 in.)
16:50 15.0°C (59.0 °F) 18.5 kmh (11.5 mph) WNW 58% 1024.0hPa (30.24 inHg) 0.0mm (0.00 in.)
15:50 16.0°C (60.8 °F) 18.5 kmh (11.5 mph) W 51% 1024.0hPa (30.24 inHg) 0.0mm (0.00 in.)
14:50 16.0°C (60.8 °F) 11.1 kmh (6.9 mph) WNW 51% 1024.0hPa (30.24 inHg) 0.0mm (0.00 in.)
13:50 17.0°C (62.6 °F) 13.0 kmh (8.1 mph) ENE 51% 1024.0hPa (30.24 inHg) 0.0mm (0.00 in.)
12:50 17.0°C (62.6 °F) 13.0 kmh (8.1 mph) SSW 51% 1025.1hPa (30.27 inHg) 0.0mm (0.00 in.)
11:50 17.0°C (62.6 °F) 7.4 kmh (4.6 mph) SW 45% 1026.1hPa (30.30 inHg) 0.0mm (0.00 in.)
10:50 16.0°C (60.8 °F) 5.6 kmh (3.5 mph) WNW 51% 1025.1hPa (30.27 inHg) 0.0mm (0.00 in.)
9:50 15.0°C (59.0 °F) 5.6 kmh (3.5 mph) NW 58% 1025.1hPa (30.27 inHg) 0.0mm (0.00 in.)
8:50 12.0°C (53.6 °F) 9.3 kmh (5.8 mph) WNW 71% 1024.0hPa (30.24 inHg) 0.0mm (0.00 in.)